world map with LKCV marked

LKCV - Airport

This information may not be accurate or current and is not valid for navigation or flight planning. No warranty of fitness for any purpose is made or implied.

flag of Czech Republic

Donate via PayPal

Additional information is available on the NEW Great Circle Mapper

Location
City:  Caslav, Czech Republic
ICAO:LKCV

Details
Type:Airport (Aerodrome, Airfield)
Use:Military
Latitude:49°56'23"N (49.939653)
Longitude:15°22'55"E (15.381808)
Datum:WGS 1984
Elevation:794 ft (242 m)
Runways:1
Longest:7875 × 197 ft (2400 × 60 m)

Time
Timezone:UTC+1 (DST+2)
Local Time:

Weather
METAR:LKCV  300400Z VRB01KT 9999 BKN027 BKN080 18/17 Q1007 NOSIG RMK BLU BLU
TAF:LKCV  (expired)

Related Locations
Nearby:
Farthest:CHT: 11735 mi / 18885 km
Waitangi [Tuuta], Chatham Islands, NZ

Find:

   beyond  
but within

Other Information
Maps:
Links:
Sources:

  


 


Great Circle Mapper   Great Circle Mapper
Great Circle Mapper FAQ   Great Circle Mapper FAQ
  Karl's Home Page
KLSē   KLSē Home
   GC on Facebook
Airlines of the World   Airlines of the World
Donate via PayPal


Copyright © 2004-2014, Karl L. Swartz. All rights reserved.
All trademarks mentioned herein belong to their respective owners.

Please see credits for attribution and copyright information.

Karl Swartz <karl@kls2.com>
  Powered by FreeBSD
Valid HTML 4.01!
Labeled with ICRA
hCard Microformat
Geo Microformat